• Join FlightAware (Why Join?)
  • Login
  • US Flag 
01:38AM EDT


 

Airport Tracker/Info


-or-


 

Live Flight TrackerFlight Track Log ✈ SWA757 ✈ 01-May-2013 ✈ KSJC - KSAN

Flight Track Log - Related Links

Times and Time Zones

All times are in EDT time to prevent confusion due to time zone crossing. See the SWA757 flight status page for this flight to view local times or setup timezone preferences in your user account.

Time Position Orientation Groundspeed Altitude Reporting Facility
EDT Latitude Longitude Course Direction KTS MPH feet Rate Location/Type
11:12PM 37.3667 -121.9333 321° Northwest 138 159 1,100  Level Northern Cal TRACON
11:13PM 37.3783 -121.9453 321° Northwest 150 173 1,500 2,460 Climbing Oakland Center
11:14PM 37.4236 -121.9814 328° Northwest 194 223 4,800 1,680 Climbing Oakland Center
11:15PM 37.4108 -121.9128 103° East 206 237 5,000 780 Climbing Oakland Center
11:16PM 37.3678 -121.8636 138° Southeast 209 241 6,500 2,700 Climbing Oakland Center
11:17PM 37.3247 -121.8153 138° Southeast 208 239 10,500 2,820 Climbing Oakland Center
11:18PM 37.2706 -121.7553 139° Southeast 281 323 12,300 2,640 Climbing Oakland Center
11:19PM 37.2003 -121.6756 138° Southeast 333 383 15,900 3,240 Climbing Oakland Center
11:20PM 37.1247 -121.5919 139° Southeast 358 412 19,000 3,120 Climbing Oakland Center
11:21PM 37.0383 -121.4933 138° Southeast 385 443 22,300 3,120 Climbing Oakland Center
11:22PM 36.9556 -121.3997 138° Southeast 398 458 25,400 2,700 Climbing Oakland Center
11:23PM 36.8714 -121.3058 138° Southeast 404 465 27,900 1,740 Climbing Oakland Center
11:24PM 36.7797 -121.2100 140° Southeast 440 506 29,000 1,440 Climbing Oakland Center
11:25PM 36.6583 -121.0861 141° Southeast 467 537 30,900 960 Climbing Oakland Center
11:26PM 36.5467 -121.0019 149° Southeast 468 539 31,000  Climbing Oakland Center
11:27PM 36.4372 -120.9136 147° Southeast 467 537 31,000 1,080 Level Oakland Center
11:28PM 36.3286 -120.8256 147° Southeast 466 536 33,200 2,160 Climbing Oakland Center
11:29PM 36.2197 -120.7408 148° Southeast 462 532 35,500 1,980 Climbing Oakland Center
11:30PM 36.1133 -120.6572 148° Southeast 454 522 37,300 1,620 Climbing Oakland Center
11:31PM 36.0067 -120.5728 147° Southeast 455 524 38,900 780 Climbing Oakland Center
11:32PM 35.9008 -120.4906 148° Southeast 446 513 39,000  Climbing Oakland Center
11:33PM 35.7953 -120.4075 147° Southeast 447 514 39,000  Level Oakland Center
11:34PM 35.6914 -120.3222 146° Southeast 445 512 39,000  Level Oakland Center
11:35PM 35.5972 -120.2150 137° Southeast 454 522 39,000  Level Oakland Center
11:36PM 35.5014 -120.1083 138° Southeast 463 533 39,000  Level Oakland Center
11:37PM 35.4050 -120.0033 138° Southeast 458 527 39,000  Level Oakland Center
11:38PM 35.3103 -119.9014 139° Southeast 455 524 39,000  Level Los Angeles Center
11:39PM 35.2156 -119.7978 138° Southeast 455 524 39,000  Level Los Angeles Center
11:40PM 35.1025 -119.6750 138° Southeast 453 521 39,000  Level Los Angeles Center
11:41PM 35.0086 -119.5728 138° Southeast 452 520 39,000  Level Los Angeles Center
11:42PM 34.9133 -119.4706 139° Southeast 456 525 39,000  Level Los Angeles Center
11:43PM 34.8194 -119.3689 138° Southeast 453 521 39,000  Level Los Angeles Center
11:44PM 34.7253 -119.2667 138° Southeast 452 520 39,000  Level Los Angeles Center
11:45PM 34.6308 -119.1658 139° Southeast 452 520 39,000  Level Los Angeles Center
11:46PM 34.5183 -119.0503 140° Southeast 451 519 39,000  Level Los Angeles Center
11:47PM 34.4253 -118.9511 139° Southeast 447 514 39,000  Level Los Angeles Center
11:48PM 34.3311 -118.8511 139° Southeast 449 517 39,000 -180 Level Los Angeles Center
11:49PM 34.2375 -118.7536 139° Southeast 446 513 38,700 -660 Descending Los Angeles Center
11:50PM 34.1436 -118.6539 139° Southeast 448 516 37,700 -960 Descending Los Angeles Center
11:51PM 34.0489 -118.5547 139° Southeast 451 519 36,800 -960 Descending Los Angeles Center
11:53PM 33.9539 -118.4544 139° Southeast 452 520 35,800 -1,140 Descending Los Angeles Center
11:54PM 33.8661 -118.3433 134° Southeast 455 524 34,500 -1,500 Descending Los Angeles Center
11:55PM 33.7589 -118.2119 134° Southeast 453 521 32,800 -1,800 Descending Los Angeles Center
11:56PM 33.6850 -118.1131 132° Southeast 459 528 30,900 -2,460 Descending Los Angeles Center
11:57PM 33.5819 -117.9842 134° Southeast 446 513 27,800 -2,700 Descending Los Angeles Center
11:58PM 33.4836 -117.8600 133° Southeast 428 493 24,900 -2,340 Descending Los Angeles Center
11:59PM 33.4050 -117.7611 134° Southeast 413 475 22,500 -2,400 Descending Los Angeles Center
12:00AM 33.3281 -117.6647 134° Southeast 401 461 20,000 -2,400 Descending Los Angeles Center
12:01AM 33.2519 -117.5711 134° Southeast 395 455 17,700 -2,220 Descending Los Angeles Center
12:02AM 33.1703 -117.4964 143° Southeast 374 430 15,500 -2,100 Descending Los Angeles Center
12:03AM 33.0861 -117.4286 146° Southeast 367 422 13,500 -2,700 Descending Los Angeles Center
12:04AM 32.9889 -117.3500 146° Southeast 354 407 10,000 -1,860 Descending Los Angeles Center
12:05AM 32.9167 -117.3000 150° Southeast 293 337 9,800 -960 Descending Southern California TRACON
12:06AM 32.8500 -117.2333 140° Southeast 286 329 8,000 -1,680 Descending Southern California TRACON
12:07AM 32.8000 -117.1500 126° Southeast 282 325 6,300 -1,560 Descending Southern California TRACON
12:08AM 32.7822 -117.0881 109° East 276 318 5,000 -720 Descending Los Angeles Center
12:09AM 32.7667 -117.0000 102° East 219 252 5,000 -540 Level Southern California TRACON
12:10AM 32.7000 -117.0000 180° South 234 269 4,000 -840 Descending Southern California TRACON
12:11AM 32.7000 -117.0500 270° West 198 228 3,200 -900 Descending Southern California TRACON
12:12AM 32.7167 -117.1000 292° West 144 166 2,200 -1,320 Descending Southern California TRACON
12:13AM 32.7167 -117.1500 270° West 131 151 800 -960 Descending Southern California TRACON
12:14AM 32.7339 -117.1900 297° West 134 154 200 -600 Descending Los Angeles Center
12:16AM 32.7336 -117.1897 130° Southeast  Level Estimated
12:23AM 32.7333 -117.1833 North  Level FlightAware Approximate